createdAt,value
2023-03-11T00:00:17.025Z,6.18
2023-03-11T00:03:04.406Z,7.00
2023-03-11T00:05:33.732Z,5.88
2023-03-11T00:08:00.954Z,4.93
2023-03-11T00:10:30.470Z,3.35
2023-03-11T00:12:58.336Z,5.53
2023-03-11T00:15:25.900Z,3.83
2023-03-11T00:17:52.681Z,3.00
2023-03-11T00:20:28.204Z,2.50
2023-03-11T00:22:55.224Z,3.83
2023-03-11T00:25:23.940Z,2.70
2023-03-11T00:27:50.894Z,2.00
2023-03-11T00:30:18.983Z,2.50
2023-03-11T00:32:48.604Z,2.03
2023-03-11T00:35:17.599Z,2.75
2023-03-11T00:37:44.996Z,1.70
2023-03-11T00:40:17.115Z,1.88
2023-03-11T00:42:44.036Z,2.55
2023-03-11T00:45:11.804Z,2.55
2023-03-11T00:47:38.659Z,1.13
2023-03-11T00:50:06.708Z,1.83
2023-03-11T00:52:33.545Z,2.38
2023-03-11T00:55:00.662Z,1.58
2023-03-11T00:57:29.196Z,0.80
2023-03-11T00:59:56.384Z,0.88
2023-03-11T01:02:23.807Z,1.23
2023-03-11T01:04:55.690Z,1.58
2023-03-11T01:07:23.117Z,1.73
2023-03-11T01:09:50.196Z,1.00
2023-03-11T01:12:16.989Z,2.20
2023-03-11T01:14:44.173Z,1.42
2023-03-11T01:17:10.979Z,1.35
2023-03-11T01:19:38.055Z,1.30
2023-03-11T01:22:04.862Z,2.13
2023-03-11T01:24:31.893Z,3.28
2023-03-11T01:26:58.696Z,1.02
2023-03-11T01:29:25.761Z,1.20
2023-03-11T01:31:52.606Z,2.60
2023-03-11T01:34:19.713Z,1.42
2023-03-11T01:36:46.466Z,1.30
2023-03-11T01:39:13.567Z,1.15
2023-03-11T01:41:41.400Z,3.17
2023-03-11T01:44:13.611Z,1.17
2023-03-11T01:47:02.140Z,2.35
2023-03-11T01:49:29.277Z,2.88
2023-03-11T01:52:01.284Z,1.35
2023-03-11T01:54:30.364Z,1.58
2023-03-11T01:56:57.124Z,1.35
2023-03-11T01:59:29.393Z,1.65
2023-03-11T02:02:14.877Z,2.15
2023-03-11T02:04:42.089Z,1.35
2023-03-11T02:07:09.399Z,1.48
2023-03-11T02:09:36.531Z,1.65
2023-03-11T02:12:04.158Z,2.03
2023-03-11T02:14:31.290Z,1.90
2023-03-11T02:16:58.538Z,0.88
2023-03-11T02:19:31.678Z,1.15
2023-03-11T02:21:58.446Z,1.27
2023-03-11T02:24:34.391Z,2.05
2023-03-11T02:27:03.748Z,1.02
2023-03-11T02:29:30.842Z,1.25
2023-03-11T02:31:57.604Z,1.92
2023-03-11T02:34:26.629Z,0.73
2023-03-11T02:36:53.402Z,1.20
2023-03-11T02:39:37.172Z,2.28
2023-03-11T02:42:06.182Z,0.65
2023-03-11T02:44:33.459Z,1.02
2023-03-11T02:47:00.803Z,1.45
2023-03-11T02:49:27.973Z,0.90
2023-03-11T02:51:54.764Z,1.52
2023-03-11T02:54:21.825Z,1.25
2023-03-11T02:56:48.623Z,1.00
2023-03-11T02:59:15.680Z,1.40
2023-03-11T03:01:42.421Z,1.55
2023-03-11T03:04:09.574Z,2.25
2023-03-11T03:06:36.361Z,1.63
2023-03-11T03:09:03.834Z,1.42
2023-03-11T03:11:30.596Z,1.65
2023-03-11T03:13:57.677Z,1.35
2023-03-11T03:16:24.419Z,1.55
2023-03-11T03:18:52.454Z,1.40
2023-03-11T03:21:19.196Z,0.82
2023-03-11T03:23:46.282Z,2.03
2023-03-11T03:26:14.181Z,1.15
2023-03-11T03:28:41.243Z,0.85
2023-03-11T03:31:09.191Z,1.20
2023-03-11T03:33:36.280Z,1.35
2023-03-11T03:36:09.581Z,4.10
2023-03-11T03:38:36.732Z,1.38
2023-03-11T03:41:03.720Z,1.27
2023-03-11T03:43:30.839Z,1.33
2023-03-11T03:46:03.022Z,2.63
2023-03-11T03:48:30.309Z,1.83
2023-03-11T03:50:57.093Z,0.80
2023-03-11T03:53:24.153Z,1.10
2023-03-11T03:55:51.031Z,0.70
2023-03-11T03:58:18.100Z,2.70
2023-03-11T04:00:44.912Z,1.52
2023-03-11T04:03:12.074Z,1.55
2023-03-11T04:05:38.896Z,0.77
2023-03-11T04:08:05.993Z,1.58
2023-03-11T04:10:32.777Z,2.25
2023-03-11T04:12:59.924Z,0.80
2023-03-11T04:15:26.676Z,1.85
2023-03-11T04:17:53.811Z,1.02
2023-03-11T04:20:20.744Z,1.67
2023-03-11T04:22:47.861Z,1.70
2023-03-11T04:25:14.793Z,1.10
2023-03-11T04:27:45.978Z,1.00
2023-03-11T04:30:13.269Z,1.15
2023-03-11T04:32:40.507Z,0.90
2023-03-11T04:35:07.676Z,0.60
2023-03-11T04:37:34.778Z,0.95
2023-03-11T04:40:01.588Z,0.50
2023-03-11T04:42:28.694Z,0.57
2023-03-11T04:44:55.484Z,1.55
2023-03-11T04:47:22.533Z,1.33
2023-03-11T04:49:49.316Z,0.45
2023-03-11T04:52:16.397Z,0.20
2023-03-11T04:54:43.155Z,0.50
2023-03-11T04:57:10.270Z,0.50
2023-03-11T04:59:37.039Z,0.40
2023-03-11T05:02:04.187Z,0.30
2023-03-11T05:04:30.982Z,0.47
2023-03-11T05:06:58.116Z,0.73
2023-03-11T05:09:24.937Z,0.40
2023-03-11T05:11:52.043Z,0.43
2023-03-11T05:14:18.815Z,0.35
2023-03-11T05:16:45.919Z,0.28
2023-03-11T05:19:31.105Z,0.40
2023-03-11T05:21:58.567Z,0.52
2023-03-11T05:24:28.197Z,0.40
2023-03-11T05:26:55.487Z,0.73
2023-03-11T05:29:22.392Z,0.50
2023-03-11T05:31:49.551Z,0.38
2023-03-11T05:34:16.405Z,0.70
2023-03-11T05:36:43.656Z,0.20
2023-03-11T05:39:10.598Z,0.55
2023-03-11T05:41:37.650Z,0.28
2023-03-11T05:44:04.496Z,0.38
2023-03-11T05:46:32.380Z,0.10
2023-03-11T05:49:00.062Z,0.25
2023-03-11T05:51:27.254Z,0.65
2023-03-11T05:53:54.055Z,0.60
2023-03-11T05:56:21.964Z,0.35
2023-03-11T05:58:48.810Z,0.88
2023-03-11T06:01:17.298Z,0.45
2023-03-11T06:03:44.099Z,0.20
2023-03-11T06:06:12.393Z,0.20
2023-03-11T06:08:39.202Z,0.22
2023-03-11T06:11:07.936Z,0.63
2023-03-11T06:13:35.123Z,0.55
2023-03-11T06:16:02.363Z,1.02
2023-03-11T06:18:29.148Z,0.32
2023-03-11T06:20:59.813Z,0.47
2023-03-11T06:23:27.037Z,0.82
2023-03-11T06:25:58.173Z,2.05
2023-03-11T06:28:25.166Z,0.52
2023-03-11T06:30:52.280Z,0.30
2023-03-11T06:33:19.090Z,0.50
2023-03-11T06:35:56.761Z,0.60
2023-03-11T06:38:23.623Z,0.30
2023-03-11T06:40:50.655Z,0.93
2023-03-11T06:43:17.448Z,0.65
2023-03-11T06:45:45.294Z,0.55
2023-03-11T06:48:12.078Z,0.47
2023-03-11T06:50:39.201Z,1.17
2023-03-11T06:53:08.812Z,2.03
2023-03-11T06:55:36.149Z,1.30
2023-03-11T06:58:03.793Z,2.10
2023-03-11T07:00:31.247Z,2.03
2023-03-11T07:02:58.177Z,1.15
2023-03-11T07:05:25.320Z,1.40
2023-03-11T07:07:54.610Z,0.80
2023-03-11T07:10:21.745Z,1.67
2023-03-11T07:12:48.579Z,1.50
2023-03-11T07:15:15.660Z,1.13
2023-03-11T07:17:42.532Z,1.35
2023-03-11T07:20:10.423Z,1.67
2023-03-11T07:22:37.245Z,4.20
2023-03-11T07:25:04.647Z,3.10
2023-03-11T07:27:31.406Z,2.70
2023-03-11T07:29:58.512Z,2.53
2023-03-11T07:32:25.380Z,3.88
2023-03-11T07:34:52.577Z,2.63
2023-03-11T07:37:19.812Z,3.20
2023-03-11T07:39:46.928Z,2.83
2023-03-11T07:42:13.673Z,3.50
2023-03-11T07:44:40.766Z,3.30
2023-03-11T07:47:07.553Z,2.58
2023-03-11T07:49:34.623Z,4.03
2023-03-11T07:52:01.474Z,3.33
2023-03-11T07:54:28.531Z,4.45
2023-03-11T07:56:55.314Z,4.75
2023-03-11T07:59:22.490Z,4.63
2023-03-11T08:01:50.601Z,4.93
2023-03-11T08:04:18.909Z,6.05
2023-03-11T08:06:46.669Z,6.78
2023-03-11T08:09:13.783Z,7.43
2023-03-11T08:11:40.668Z,8.95
2023-03-11T08:14:07.852Z,5.82
2023-03-11T08:16:34.705Z,7.50
2023-03-11T08:19:02.025Z,8.98
2023-03-11T08:21:30.020Z,7.45
2023-03-11T08:23:58.507Z,7.10
2023-03-11T08:26:25.355Z,9.45
2023-03-11T08:28:52.494Z,19.35
2023-03-11T08:31:26.843Z,22.02
2023-03-11T08:33:59.350Z,21.75
2023-03-11T08:36:26.521Z,23.40
2023-03-11T08:38:53.661Z,27.02
2023-03-11T08:41:20.584Z,27.80
2023-03-11T08:43:47.737Z,25.92
2023-03-11T08:46:19.489Z,29.00
2023-03-11T08:48:46.625Z,26.75
2023-03-11T08:51:13.522Z,26.65
2023-03-11T08:53:40.742Z,22.60
2023-03-11T08:56:07.924Z,26.63
2023-03-11T08:58:35.132Z,23.63
2023-03-11T09:01:02.048Z,23.92
2023-03-11T09:03:32.121Z,25.98
2023-03-11T09:06:02.593Z,23.10
2023-03-11T09:08:29.962Z,20.40
2023-03-11T09:10:56.788Z,18.92
2023-03-11T09:13:23.993Z,16.20
2023-03-11T09:15:51.287Z,16.15
2023-03-11T09:18:18.488Z,15.48
2023-03-11T09:20:45.433Z,14.98
2023-03-11T09:23:14.045Z,15.82
2023-03-11T09:25:40.883Z,11.98
2023-03-11T09:28:07.992Z,11.27
2023-03-11T09:30:35.764Z,10.88
2023-03-11T09:33:03.002Z,9.43
2023-03-11T09:35:29.836Z,7.10
2023-03-11T09:37:56.989Z,7.78
2023-03-11T09:40:23.965Z,9.32
2023-03-11T09:43:09.789Z,9.50
2023-03-11T09:45:38.882Z,8.48
2023-03-11T09:48:25.314Z,7.60
2023-03-11T09:51:08.465Z,8.68
2023-03-11T09:53:40.771Z,7.70
2023-03-11T09:56:18.212Z,6.97
2023-03-11T09:58:47.573Z,4.85
2023-03-11T10:01:22.493Z,6.95
2023-03-11T10:03:50.604Z,9.88
2023-03-11T10:06:21.746Z,6.78
2023-03-11T10:09:01.087Z,6.85
2023-03-11T10:11:36.966Z,5.95
2023-03-11T10:14:25.926Z,9.43
2023-03-11T10:17:23.154Z,5.55
2023-03-11T10:19:53.528Z,7.35
2023-03-11T10:23:05.526Z,6.53
2023-03-11T10:26:20.351Z,7.28
2023-03-11T10:28:51.247Z,6.03
2023-03-11T10:31:38.112Z,6.03
2023-03-11T10:34:14.002Z,6.40
2023-03-11T10:36:55.997Z,7.93
2023-03-11T10:39:23.003Z,6.05
2023-03-11T10:41:52.835Z,6.70
2023-03-11T10:44:23.977Z,6.95
2023-03-11T10:46:51.111Z,8.23
2023-03-11T10:49:18.359Z,6.45
2023-03-11T10:51:50.515Z,7.15
2023-03-11T10:54:31.740Z,8.63
2023-03-11T10:57:06.949Z,7.95
2023-03-11T10:59:34.795Z,5.75
2023-03-11T11:02:03.676Z,4.68
2023-03-11T11:04:40.748Z,7.57
2023-03-11T11:07:41.188Z,6.22
2023-03-11T11:10:20.529Z,6.25
2023-03-11T11:13:12.691Z,6.38
2023-03-11T11:16:03.057Z,6.35
2023-03-11T11:18:30.168Z,8.25
2023-03-11T11:21:01.243Z,8.55
2023-03-11T11:23:48.626Z,7.35
2023-03-11T11:26:22.378Z,8.75
2023-03-11T11:29:15.841Z,8.60
2023-03-11T11:31:46.208Z,10.25
2023-03-11T11:34:33.046Z,11.63
2023-03-11T11:37:01.904Z,11.50
2023-03-11T11:39:30.652Z,14.80
2023-03-11T11:41:57.520Z,15.85
2023-03-11T11:44:31.471Z,13.18
2023-03-11T11:47:06.331Z,11.30
2023-03-11T11:52:14.029Z,10.65
2023-03-11T11:54:46.337Z,12.48
2023-03-11T11:57:14.701Z,12.02
2023-03-11T11:59:42.299Z,12.15
2023-03-11T12:02:52.984Z,14.13
2023-03-11T12:05:27.465Z,16.05
2023-03-11T12:07:58.117Z,14.52
2023-03-11T12:10:39.832Z,12.98
2023-03-11T12:13:21.888Z,14.82
2023-03-11T12:16:02.530Z,15.52
2023-03-11T12:18:40.534Z,16.35
2023-03-11T12:21:27.429Z,21.25
2023-03-11T12:24:25.175Z,16.88
2023-03-11T12:26:52.552Z,17.75
2023-03-11T12:29:29.570Z,17.98
2023-03-11T12:31:56.693Z,16.33
2023-03-11T12:34:24.924Z,13.57
2023-03-11T12:36:52.446Z,14.15
2023-03-11T12:39:25.431Z,15.27
2023-03-11T12:42:11.185Z,13.43
2023-03-11T12:44:38.707Z,13.10
2023-03-11T12:47:09.083Z,14.55
2023-03-11T12:49:46.838Z,12.40
2023-03-11T12:52:13.912Z,13.30
2023-03-11T12:54:40.747Z,12.40
2023-03-11T12:57:16.938Z,13.18
2023-03-11T12:59:49.676Z,11.82
2023-03-11T13:02:28.880Z,11.05
2023-03-11T13:04:59.670Z,11.10
2023-03-11T13:07:51.093Z,11.05
2023-03-11T13:10:40.714Z,10.07
2023-03-11T13:13:32.509Z,14.07
2023-03-11T13:16:19.391Z,12.98
2023-03-11T13:18:51.658Z,13.00
2023-03-11T13:21:27.562Z,11.98
2023-03-11T13:24:16.203Z,12.52
2023-03-11T13:27:05.008Z,10.48
2023-03-11T13:30:17.118Z,9.45
2023-03-11T13:32:53.028Z,11.65
2023-03-11T13:35:34.100Z,8.70
2023-03-11T13:38:13.311Z,12.77
2023-03-11T13:40:41.914Z,9.57
2023-03-11T13:43:25.477Z,11.75
2023-03-11T13:46:00.733Z,8.50
2023-03-11T13:48:37.659Z,10.68
2023-03-11T13:51:12.249Z,10.55
2023-03-11T13:53:43.217Z,12.27
2023-03-11T13:56:49.190Z,11.15
2023-03-11T13:59:17.841Z,11.80
2023-03-11T14:01:55.110Z,12.35
2023-03-11T14:04:30.263Z,11.73
2023-03-11T14:06:58.198Z,14.52
2023-03-11T14:09:26.558Z,14.05
2023-03-11T14:11:56.877Z,12.63
2023-03-11T14:15:01.186Z,12.75
2023-03-11T14:17:28.269Z,14.70
2023-03-11T14:20:15.297Z,12.73
2023-03-11T14:22:52.509Z,13.85
2023-03-11T14:25:27.505Z,14.13
2023-03-11T14:30:30.295Z,16.17
2023-03-11T14:33:00.572Z,14.07
2023-03-11T14:35:27.454Z,12.98
2023-03-11T14:37:54.619Z,14.63
2023-03-11T14:40:28.763Z,16.15
2023-03-11T14:42:57.722Z,18.83
2023-03-11T14:45:32.930Z,16.63
2023-03-11T14:48:04.702Z,21.15
2023-03-11T14:50:35.079Z,20.17
2023-03-11T14:53:14.280Z,19.25
2023-03-11T14:55:51.118Z,20.70
2023-03-11T14:58:34.677Z,18.40
2023-03-11T15:01:19.765Z,18.00
2023-03-11T15:03:50.165Z,18.73
2023-03-11T15:06:18.305Z,14.45
2023-03-11T15:08:50.885Z,13.30
2023-03-11T15:11:20.012Z,13.77
2023-03-11T15:13:50.541Z,13.50
2023-03-11T15:16:43.903Z,12.75
2023-03-11T15:19:29.536Z,12.68
2023-03-11T15:21:59.913Z,10.40
2023-03-11T15:24:28.769Z,12.98
2023-03-11T15:26:56.516Z,14.35
2023-03-11T15:29:23.744Z,16.85
2023-03-11T15:31:50.624Z,10.50
2023-03-11T15:34:17.697Z,10.05
2023-03-11T15:37:20.474Z,14.45
2023-03-11T15:39:51.134Z,12.68
2023-03-11T15:42:23.062Z,14.65
2023-03-11T15:45:24.242Z,13.77
2023-03-11T15:47:51.012Z,11.23
2023-03-11T15:50:24.778Z,13.25
2023-03-11T15:52:56.508Z,15.30
2023-03-11T15:55:24.420Z,13.32
2023-03-11T15:57:52.679Z,12.13
2023-03-11T16:00:22.319Z,14.85
2023-03-11T16:02:50.103Z,14.23
2023-03-11T16:05:22.028Z,13.40
2023-03-11T16:07:48.951Z,12.93
2023-03-11T16:10:18.074Z,15.57
2023-03-11T16:12:44.954Z,16.05
2023-03-11T16:15:28.643Z,16.58
2023-03-11T16:17:57.494Z,19.20
2023-03-11T16:20:25.663Z,17.70
2023-03-11T16:22:53.684Z,19.35
2023-03-11T16:25:26.707Z,19.48
2023-03-11T16:27:54.021Z,19.90
2023-03-11T16:30:21.358Z,20.27
2023-03-11T16:32:48.206Z,23.20
2023-03-11T16:35:15.420Z,27.30
2023-03-11T16:37:43.358Z,24.00
2023-03-11T16:40:15.701Z,19.88
2023-03-11T16:42:43.671Z,20.88
2023-03-11T16:45:12.408Z,21.13
2023-03-11T16:47:39.231Z,18.70
2023-03-11T16:50:07.005Z,24.67
2023-03-11T16:52:34.169Z,20.58
2023-03-11T16:55:01.403Z,21.40
2023-03-11T16:57:28.259Z,20.20
2023-03-11T16:59:55.442Z,18.90
2023-03-11T17:02:24.512Z,19.05
2023-03-11T17:04:52.049Z,20.65
2023-03-11T17:07:18.855Z,17.85
2023-03-11T17:09:45.958Z,18.65
2023-03-11T17:12:15.729Z,18.10
2023-03-11T17:14:42.861Z,19.33
2023-03-11T17:17:09.757Z,18.45
2023-03-11T17:19:36.869Z,19.80
2023-03-11T17:22:03.967Z,17.45
2023-03-11T17:24:31.166Z,17.05
2023-03-11T17:26:58.397Z,15.60
2023-03-11T17:29:25.602Z,18.33
2023-03-11T17:31:52.464Z,21.95
2023-03-11T17:34:19.833Z,21.45
2023-03-11T17:36:46.625Z,18.30
2023-03-11T17:39:13.714Z,23.63
2023-03-11T17:41:40.469Z,22.88
2023-03-11T17:44:07.658Z,25.63
2023-03-11T17:46:36.328Z,19.73
2023-03-11T17:49:03.535Z,19.67
2023-03-11T17:51:30.532Z,21.67
2023-03-11T17:53:57.699Z,17.88
2023-03-11T17:56:24.571Z,20.35
2023-03-11T17:58:52.056Z,19.65
2023-03-11T18:01:20.912Z,21.80
2023-03-11T18:03:48.219Z,18.45
2023-03-11T18:06:15.140Z,18.52
2023-03-11T18:08:42.268Z,16.50
2023-03-11T18:11:11.772Z,21.58
2023-03-11T18:13:39.022Z,21.45
2023-03-11T18:16:07.981Z,19.80
2023-03-11T18:18:35.812Z,20.45
2023-03-11T18:21:04.443Z,23.20
2023-03-11T18:23:33.214Z,21.67
2023-03-11T18:26:01.106Z,20.85
2023-03-11T18:28:28.331Z,18.60
2023-03-11T18:30:55.352Z,23.00
2023-03-11T18:33:23.776Z,18.52
2023-03-11T18:35:50.946Z,21.45
2023-03-11T18:38:18.112Z,20.08
2023-03-11T18:40:45.002Z,20.77
2023-03-11T18:43:14.223Z,25.00
2023-03-11T18:45:41.101Z,22.63
2023-03-11T18:48:08.246Z,24.00
2023-03-11T18:50:35.049Z,27.33
2023-03-11T18:53:02.199Z,27.83
2023-03-11T18:55:29.051Z,27.10
2023-03-11T18:57:56.139Z,30.25
2023-03-11T19:00:23.758Z,28.25
2023-03-11T19:02:54.864Z,31.60
2023-03-11T19:05:21.926Z,26.13
2023-03-11T19:07:48.992Z,28.98
2023-03-11T19:10:18.030Z,30.15
2023-03-11T19:12:45.607Z,23.63
2023-03-11T19:15:12.699Z,26.48
2023-03-11T19:17:40.050Z,25.15
2023-03-11T19:20:08.773Z,23.35
2023-03-11T19:22:36.644Z,26.42
2023-03-11T19:25:04.571Z,26.05
2023-03-11T19:27:31.856Z,28.50
2023-03-11T19:29:58.684Z,29.92
2023-03-11T19:32:25.815Z,24.58
2023-03-11T19:34:52.658Z,23.38
2023-03-11T19:37:19.769Z,25.52
2023-03-11T19:39:46.567Z,26.02
2023-03-11T19:42:14.095Z,26.77
2023-03-11T19:44:40.923Z,24.73
2023-03-11T19:47:08.101Z,20.95
2023-03-11T19:49:34.873Z,20.80
2023-03-11T19:52:02.407Z,21.10
2023-03-11T19:54:29.310Z,24.77
2023-03-11T19:56:56.377Z,19.10
2023-03-11T19:59:23.243Z,21.42
2023-03-11T20:01:50.354Z,25.83
2023-03-11T20:04:17.250Z,19.50
2023-03-11T20:06:44.804Z,21.40
2023-03-11T20:09:12.645Z,22.25
2023-03-11T20:11:40.398Z,22.90
2023-03-11T20:14:07.535Z,23.73
2023-03-11T20:16:34.691Z,22.27
2023-03-11T20:19:01.668Z,20.35
2023-03-11T20:21:28.796Z,20.60
2023-03-11T20:23:55.926Z,20.20
2023-03-11T20:26:23.550Z,18.45
2023-03-11T20:28:50.396Z,21.75
2023-03-11T20:31:22.407Z,22.65
2023-03-11T20:33:49.771Z,17.30
2023-03-11T20:36:20.477Z,19.17
2023-03-11T20:38:51.580Z,21.17
2023-03-11T20:41:19.251Z,20.48
2023-03-11T20:43:46.136Z,19.73
2023-03-11T20:46:13.415Z,22.00
2023-03-11T20:48:40.373Z,19.60
2023-03-11T20:51:10.353Z,18.13
2023-03-11T20:53:37.366Z,19.52
2023-03-11T20:56:15.519Z,17.90
2023-03-11T20:58:43.221Z,18.13
2023-03-11T21:01:17.831Z,17.70
2023-03-11T21:03:45.006Z,16.90
2023-03-11T21:06:23.206Z,17.77
2023-03-11T21:08:50.242Z,15.60
2023-03-11T21:11:17.509Z,15.75
2023-03-11T21:13:44.529Z,15.50
2023-03-11T21:16:11.794Z,18.20
2023-03-11T21:18:38.836Z,14.00
2023-03-11T21:21:08.497Z,14.85
2023-03-11T21:23:35.909Z,12.45
2023-03-11T21:26:03.469Z,13.60
2023-03-11T21:28:31.858Z,17.48
2023-03-11T21:31:04.527Z,17.83
2023-03-11T21:33:31.755Z,13.90
2023-03-11T21:35:59.625Z,15.68
2023-03-11T21:38:26.862Z,17.63
2023-03-11T21:40:54.218Z,16.30
2023-03-11T21:43:21.125Z,12.20
2023-03-11T21:45:48.368Z,15.60
2023-03-11T21:48:15.220Z,13.10
2023-03-11T21:50:42.401Z,11.88
2023-03-11T21:53:09.289Z,15.68
2023-03-11T21:55:36.492Z,13.80
2023-03-11T21:58:03.422Z,15.05
2023-03-11T22:00:30.511Z,14.50
2023-03-11T22:02:57.576Z,11.48
2023-03-11T22:05:25.354Z,13.85
2023-03-11T22:07:52.389Z,12.40
2023-03-11T22:10:19.708Z,13.30
2023-03-11T22:12:46.589Z,12.57
2023-03-11T22:15:13.795Z,11.85
2023-03-11T22:17:40.662Z,13.25
2023-03-11T22:20:10.016Z,12.85
2023-03-11T22:22:36.909Z,11.85
2023-03-11T22:25:04.529Z,12.07
2023-03-11T22:27:31.646Z,13.68
2023-03-11T22:29:58.738Z,11.23
2023-03-11T22:32:25.583Z,13.93
2023-03-11T22:34:52.668Z,8.70
2023-03-11T22:37:19.399Z,11.23
2023-03-11T22:39:46.444Z,12.00
2023-03-11T22:42:13.237Z,15.75
2023-03-11T22:44:40.298Z,11.65
2023-03-11T22:47:07.069Z,14.77
2023-03-11T22:49:34.118Z,13.98
2023-03-11T22:52:00.898Z,15.20
2023-03-11T22:54:28.111Z,10.20
2023-03-11T22:56:54.919Z,12.23
2023-03-11T22:59:21.969Z,14.32
2023-03-11T23:01:48.829Z,12.90
2023-03-11T23:04:15.942Z,14.00
2023-03-11T23:06:42.726Z,10.68
2023-03-11T23:09:09.763Z,13.55
2023-03-11T23:11:36.498Z,13.25
2023-03-11T23:14:03.510Z,9.10
2023-03-11T23:16:31.296Z,11.77
2023-03-11T23:18:58.398Z,14.13
2023-03-11T23:21:27.330Z,12.90
2023-03-11T23:23:54.519Z,12.20
2023-03-11T23:26:21.470Z,12.43
2023-03-11T23:28:51.027Z,16.42
2023-03-11T23:31:18.203Z,13.30
2023-03-11T23:33:45.558Z,13.25
2023-03-11T23:36:14.707Z,13.07
2023-03-11T23:38:41.791Z,12.70
2023-03-11T23:41:10.486Z,11.60
2023-03-11T23:43:38.769Z,13.65
2023-03-11T23:46:05.912Z,13.30
2023-03-11T23:48:32.990Z,12.60
2023-03-11T23:50:59.730Z,12.23
2023-03-11T23:53:27.142Z,9.60
2023-03-11T23:55:54.154Z,12.18
2023-03-11T23:58:21.305Z,10.80
